Time;durP1;ratioP1;P1;durP2;ratioP2;P2;SDS_P1;SDS_P2;PMS_P1;PMS_P2;Temp;Humidity;BMP_temperature;BMP_pressure;BME280_temperature;BME280_humidity;BME280_pressure;Samples;Min_cycle;Max_cycle;Signal;HPM_P1;HPM_P2
2023/12/15 00:02:20;;;;;;;2.80;2.60;;;15.80;61.40;;;;;;5053175;28;20516;-65
2023/12/15 00:04:46;;;;;;;2.75;2.55;;;15.70;61.30;;;;;;5053400;28;20175;-65
2023/12/15 00:07:11;;;;;;;3.60;2.65;;;15.80;61.40;;;;;;5052484;28;20517;-66
2023/12/15 00:09:37;;;;;;;3.10;2.80;;;15.80;61.40;;;;;;5052820;28;20262;-66
2023/12/15 00:12:03;;;;;;;3.88;2.90;;;15.70;61.40;;;;;;5052931;28;20294;-66
2023/12/15 00:14:28;;;;;;;3.45;2.70;;;15.70;61.40;;;;;;5051888;28;20202;-65
2023/12/15 00:16:54;;;;;;;3.10;2.80;;;15.70;61.40;;;;;;5052885;28;20714;-65
2023/12/15 00:19:19;;;;;;;2.80;2.60;;;15.70;61.40;;;;;;5052528;28;20258;-65
2023/12/15 00:21:45;;;;;;;3.30;3.00;;;15.70;61.40;;;;;;5052312;28;20262;-65
2023/12/15 00:24:10;;;;;;;2.80;2.60;;;15.70;61.60;;;;;;5052968;28;20545;-66
2023/12/15 00:26:36;;;;;;;3.22;2.92;;;15.70;61.50;;;;;;5052534;28;20549;-66
2023/12/15 00:29:04;;;;;;;2.90;2.70;;;15.70;61.50;;;;;;5052032;28;20634;-65
2023/12/15 00:31:30;;;;;;;3.17;2.58;;;15.70;61.50;;;;;;5052420;28;20163;-66
2023/12/15 00:33:55;;;;;;;3.22;2.67;;;15.70;61.50;;;;;;5052655;28;20264;-66
2023/12/15 00:36:21;;;;;;;2.50;2.30;;;15.70;61.70;;;;;;5051737;28;20175;-66
2023/12/15 00:38:46;;;;;;;2.60;2.40;;;15.70;61.70;;;;;;5052484;28;20178;-65
2023/12/15 00:41:12;;;;;;;3.08;2.58;;;15.60;61.70;;;;;;5052555;28;20178;-65
2023/12/15 00:43:37;;;;;;;3.17;2.88;;;15.60;61.70;;;;;;5051739;28;20179;-65
2023/12/15 00:46:06;;;;;;;3.17;2.70;;;15.60;61.80;;;;;;5052587;28;20543;-65
2023/12/15 00:48:32;;;;;;;3.20;2.88;;;15.60;61.60;;;;;;5051047;28;20183;-65
2023/12/15 00:50:57;;;;;;;3.92;3.03;;;15.60;61.70;;;;;;5052467;28;20243;-65
2023/12/15 00:53:23;;;;;;;2.72;2.53;;;15.60;61.70;;;;;;5052057;28;21055;-66
2023/12/15 00:55:49;;;;;;;3.03;2.72;;;15.60;61.80;;;;;;5051436;28;20218;-66
2023/12/15 00:58:14;;;;;;;3.45;2.70;;;15.60;61.80;;;;;;5051808;28;20665;-65
2023/12/15 01:00:40;;;;;;;2.97;2.65;;;15.60;61.80;;;;;;5052179;28;20172;-65
2023/12/15 01:03:05;;;;;;;3.72;2.70;;;15.60;61.80;;;;;;5051705;28;20179;-65
2023/12/15 01:05:31;;;;;;;3.10;2.80;;;15.50;61.70;;;;;;5051757;28;20179;-65
2023/12/15 01:07:56;;;;;;;3.45;3.13;;;15.60;61.80;;;;;;5052163;28;20185;-66
2023/12/15 01:10:22;;;;;;;2.58;2.38;;;15.60;61.90;;;;;;5051167;28;20262;-66
2023/12/15 01:12:47;;;;;;;2.97;2.70;;;15.60;61.90;;;;;;5052059;28;20269;-65
2023/12/15 01:15:13;;;;;;;3.30;2.67;;;15.50;61.90;;;;;;5052158;28;20306;-65
2023/12/15 01:17:39;;;;;;;3.13;2.83;;;15.50;61.90;;;;;;5051253;28;20262;-64
2023/12/15 01:20:05;;;;;;;2.83;2.55;;;15.60;61.90;;;;;;5052149;28;20228;-65
2023/12/15 01:22:30;;;;;;;2.95;2.50;;;15.50;62.00;;;;;;5051594;28;20641;-65
2023/12/15 01:24:56;;;;;;;2.70;2.50;;;15.50;62.00;;;;;;5051372;28;20287;-65
2023/12/15 01:27:21;;;;;;;2.90;2.60;;;15.50;62.00;;;;;;5051651;28;20167;-65
2023/12/15 01:29:47;;;;;;;4.22;3.05;;;15.50;62.00;;;;;;5052128;28;20178;-65
2023/12/15 01:32:12;;;;;;;3.70;2.90;;;15.50;61.90;;;;;;5051434;28;20653;-66
2023/12/15 01:34:38;;;;;;;3.00;2.80;;;15.50;61.90;;;;;;5051542;28;20713;-66
2023/12/15 01:37:03;;;;;;;3.50;2.63;;;15.50;62.00;;;;;;5051795;28;20183;-65
2023/12/15 01:39:29;;;;;;;3.65;3.25;;;15.50;61.90;;;;;;5051004;28;20183;-65
2023/12/15 01:41:54;;;;;;;3.45;2.60;;;15.50;62.00;;;;;;5052223;28;20171;-64
2023/12/15 01:44:20;;;;;;;3.58;2.63;;;15.50;62.10;;;;;;5055707;28;20668;-65
2023/12/15 01:46:45;;;;;;;3.55;2.88;;;15.50;62.10;;;;;;5055105;28;20657;-65
2023/12/15 01:49:11;;;;;;;3.55;3.25;;;15.50;62.90;;;;;;5055680;28;20182;-66
2023/12/15 01:51:37;;;;;;;3.33;2.80;;;15.50;62.10;;;;;;5055433;28;20186;-66
2023/12/15 01:54:02;;;;;;;3.35;2.90;;;15.40;62.00;;;;;;5054669;28;20199;-66
2023/12/15 01:56:28;;;;;;;4.20;3.33;;;15.40;62.00;;;;;;5055229;28;20191;-65
2023/12/15 01:58:53;;;;;;;3.67;3.30;;;15.40;62.00;;;;;;5054875;28;20179;-65
2023/12/15 02:01:19;;;;;;;4.00;3.35;;;15.40;63.00;;;;;;5055449;28;20181;-65
2023/12/15 02:03:44;;;;;;;3.35;3.08;;;15.40;62.10;;;;;;5055629;28;20181;-65
2023/12/15 02:06:10;;;;;;;4.38;3.70;;;15.40;62.10;;;;;;5054864;28;20167;-66
2023/12/15 02:08:35;;;;;;;3.72;3.20;;;15.40;62.10;;;;;;5055177;28;20175;-66
2023/12/15 02:11:01;;;;;;;4.65;3.30;;;15.40;62.10;;;;;;5055428;28;20270;-65
2023/12/15 02:13:27;;;;;;;3.75;3.25;;;15.40;62.10;;;;;;5054281;28;20199;-66
2023/12/15 02:15:52;;;;;;;3.80;3.47;;;15.40;62.10;;;;;;5055393;28;20206;-65
2023/12/15 02:18:18;;;;;;;3.78;3.45;;;15.40;62.10;;;;;;5055160;28;20548;-65
2023/12/15 02:20:43;;;;;;;3.40;3.10;;;15.40;62.10;;;;;;5054502;28;20522;-65
2023/12/15 02:23:09;;;;;;;4.45;3.92;;;15.40;62.20;;;;;;5055096;28;20179;-65
2023/12/15 02:25:34;;;;;;;3.60;3.17;;;15.40;62.20;;;;;;5054766;28;20180;-65
2023/12/15 02:28:00;;;;;;;4.85;3.65;;;15.40;62.20;;;;;;5054198;28;20175;-66
2023/12/15 02:30:25;;;;;;;4.05;3.47;;;15.40;62.20;;;;;;5054964;28;20175;-67
2023/12/15 02:32:51;;;;;;;4.05;3.40;;;15.40;62.40;;;;;;5055106;28;20194;-65
2023/12/15 02:35:17;;;;;;;3.95;3.47;;;15.40;62.30;;;;;;5054181;28;20211;-66
2023/12/15 02:37:42;;;;;;;5.75;4.30;;;15.40;62.30;;;;;;5054927;28;20695;-65
2023/12/15 02:40:08;;;;;;;4.20;3.80;;;15.40;62.30;;;;;;5054787;28;20225;-65
2023/12/15 02:42:33;;;;;;;4.28;3.85;;;15.40;62.40;;;;;;5053820;28;20183;-65
2023/12/15 02:45:00;;;;;;;4.65;4.13;;;15.30;62.30;;;;;;5054792;28;20179;-65
2023/12/15 02:47:26;;;;;;;4.57;4.10;;;15.30;62.30;;;;;;5054476;28;20207;-65
2023/12/15 02:49:54;;;;;;;3.92;3.58;;;15.30;62.30;;;;;;5053914;28;20232;-65
2023/12/15 02:52:19;;;;;;;5.95;4.63;;;15.30;62.30;;;;;;5054376;28;20208;-66
2023/12/15 02:54:45;;;;;;;5.43;4.38;;;15.30;62.30;;;;;;5052801;28;20231;-65
2023/12/15 02:57:10;;;;;;;5.00;4.50;;;15.30;62.30;;;;;;5054035;28;20208;-65
2023/12/15 02:59:36;;;;;;;4.55;4.07;;;15.30;62.30;;;;;;5054317;28;20215;-65
2023/12/15 03:02:01;;;;;;;5.22;4.55;;;15.30;62.30;;;;;;5053959;28;20608;-65
2023/12/15 03:04:27;;;;;;;4.82;4.35;;;15.30;62.30;;;;;;5054124;28;20677;-65
2023/12/15 03:06:54;;;;;;;4.93;4.30;;;15.30;62.40;;;;;;5054378;28;20179;-65
2023/12/15 03:09:19;;;;;;;7.80;4.80;;;15.30;62.50;;;;;;5053327;28;20304;-66
2023/12/15 03:11:45;;;;;;;4.35;3.92;;;15.30;62.40;;;;;;5054203;28;20246;-66
2023/12/15 03:14:10;;;;;;;5.35;4.35;;;15.30;62.40;;;;;;5053971;28;20686;-65
2023/12/15 03:16:36;;;;;;;4.30;3.90;;;15.30;62.40;;;;;;5053055;28;20191;-65
2023/12/15 03:19:01;;;;;;;5.80;4.72;;;15.30;62.40;;;;;;5053983;28;20269;-65
2023/12/15 03:21:27;;;;;;;5.15;4.65;;;15.30;62.50;;;;;;5053658;28;20270;-65
2023/12/15 03:23:52;;;;;;;5.45;4.40;;;15.30;62.40;;;;;;5053302;28;20271;-65
2023/12/15 03:26:18;;;;;;;5.00;4.55;;;15.30;62.50;;;;;;5053573;28;20266;-65
2023/12/15 03:28:44;;;;;;;4.40;3.95;;;15.30;62.60;;;;;;5054108;28;20248;-66
2023/12/15 03:31:09;;;;;;;5.28;4.20;;;15.20;62.40;;;;;;5052988;28;20258;-65
2023/12/15 03:33:35;;;;;;;5.40;4.25;;;15.30;62.50;;;;;;5053335;28;20210;-65
2023/12/15 03:36:04;;;;;;;5.43;4.72;;;15.20;62.40;;;;;;5053805;28;20201;-65
2023/12/15 03:38:30;;;;;;;5.82;4.78;;;15.20;62.40;;;;;;5052481;28;20202;-65
2023/12/15 03:40:56;;;;;;;4.55;4.15;;;15.20;62.50;;;;;;5053644;28;20280;-65
2023/12/15 03:43:21;;;;;;;5.97;5.00;;;15.20;62.50;;;;;;5053486;28;20175;-65
2023/12/15 03:45:47;;;;;;;5.35;4.55;;;15.20;62.50;;;;;;5053017;28;20168;-65
2023/12/15 03:48:12;;;;;;;6.25;5.05;;;15.20;62.50;;;;;;5053695;28;20271;-65
2023/12/15 03:50:38;;;;;;;5.10;4.60;;;15.20;62.50;;;;;;5053157;28;20634;-66
2023/12/15 03:53:03;;;;;;;6.93;5.10;;;15.20;62.50;;;;;;5052512;28;20186;-66
2023/12/15 03:55:29;;;;;;;6.35;5.18;;;15.20;62.50;;;;;;5052964;28;20227;-66
2023/12/15 03:57:54;;;;;;;6.93;5.35;;;15.20;62.50;;;;;;5053240;28;20183;-66
2023/12/15 04:00:20;;;;;;;5.68;4.90;;;15.20;62.60;;;;;;5052224;28;20172;-65
2023/12/15 04:02:46;;;;;;;6.50;5.47;;;15.20;62.60;;;;;;5053239;28;20229;-65
2023/12/15 04:05:12;;;;;;;5.32;4.75;;;15.20;62.60;;;;;;5052818;28;20179;-66
2023/12/15 04:07:38;;;;;;;6.32;4.85;;;15.20;62.60;;;;;;5052212;28;20511;-65
2023/12/15 04:10:03;;;;;;;5.00;4.50;;;15.20;62.70;;;;;;5053068;28;20205;-66
2023/12/15 04:12:29;;;;;;;5.50;5.00;;;15.20;62.60;;;;;;5052247;28;20175;-66
2023/12/15 04:14:54;;;;;;;6.00;5.25;;;15.20;62.70;;;;;;5053110;28;20207;-65
2023/12/15 04:17:20;;;;;;;6.25;5.05;;;15.20;62.70;;;;;;5052741;28;20167;-66
2023/12/15 04:19:45;;;;;;;6.47;5.43;;;15.20;63.20;;;;;;5052318;28;20175;-65
2023/12/15 04:22:11;;;;;;;6.78;5.25;;;15.20;62.80;;;;;;5052897;28;20179;-65
2023/12/15 04:24:37;;;;;;;7.88;5.25;;;15.20;62.70;;;;;;5052449;28;20190;-65
2023/12/15 04:27:02;;;;;;;7.78;5.97;;;15.20;62.70;;;;;;5052012;28;20888;-65
2023/12/15 04:29:28;;;;;;;6.95;5.50;;;15.20;62.70;;;;;;5052651;28;20193;-66
2023/12/15 04:31:53;;;;;;;5.70;4.75;;;15.20;62.80;;;;;;5052597;28;20510;-65
2023/12/15 04:34:19;;;;;;;5.80;4.70;;;15.20;62.80;;;;;;5051656;28;20209;-66
2023/12/15 04:36:44;;;;;;;6.53;4.88;;;15.20;62.80;;;;;;5052654;28;20175;-65
2023/12/15 04:39:10;;;;;;;6.43;5.55;;;15.10;62.80;;;;;;5052649;28;20175;-65
2023/12/15 04:41:35;;;;;;;9.23;5.90;;;15.10;62.80;;;;;;5051676;28;20171;-65
2023/12/15 04:44:01;;;;;;;7.05;5.45;;;15.10;62.80;;;;;;5052575;28;20197;-65
2023/12/15 04:46:28;;;;;;;8.57;5.40;;;15.10;62.80;;;;;;5052347;28;20178;-66
2023/12/15 04:48:54;;;;;;;8.40;6.22;;;15.10;62.80;;;;;;5051859;28;20266;-66
2023/12/15 04:51:20;;;;;;;6.50;5.40;;;15.10;62.80;;;;;;5052078;28;20733;-66
2023/12/15 04:53:45;;;;;;;6.97;6.00;;;15.10;62.80;;;;;;5052293;28;20218;-66
2023/12/15 04:56:11;;;;;;;5.60;4.97;;;15.10;62.80;;;;;;5051326;28;20744;-66
2023/12/15 04:58:37;;;;;;;6.38;5.70;;;15.10;62.90;;;;;;5052239;28;20181;-65
2023/12/15 05:01:04;;;;;;;6.03;5.30;;;15.10;62.90;;;;;;5052167;28;20290;-65
2023/12/15 05:03:31;;;;;;;5.95;5.35;;;15.10;62.90;;;;;;5051183;28;20262;-66
2023/12/15 05:05:56;;;;;;;7.75;6.15;;;15.10;62.90;;;;;;5052252;28;20197;-66
2023/12/15 05:08:22;;;;;;;8.32;5.72;;;15.10;62.90;;;;;;5051760;28;20646;-66
2023/12/15 05:10:47;;;;;;;6.20;5.15;;;15.10;62.90;;;;;;5051213;28;20728;-65
2023/12/15 05:13:13;;;;;;;9.27;6.82;;;15.10;62.90;;;;;;5051905;28;20270;-65
2023/12/15 05:15:38;;;;;;;6.70;5.57;;;15.10;62.90;;;;;;5051384;28;20270;-66
2023/12/15 05:18:04;;;;;;;6.35;5.72;;;15.10;63.00;;;;;;5051108;28;20206;-65
2023/12/15 05:20:30;;;;;;;6.97;6.05;;;15.10;62.90;;;;;;5051758;28;20206;-65
2023/12/15 05:22:56;;;;;;;7.78;6.05;;;15.10;63.00;;;;;;5051081;28;20183;-65
2023/12/15 05:25:21;;;;;;;7.03;5.82;;;15.10;63.00;;;;;;5051942;28;20175;-66
2023/12/15 05:27:47;;;;;;;7.32;5.90;;;15.00;63.00;;;;;;5052023;28;20201;-66
2023/12/15 05:30:13;;;;;;;6.45;5.82;;;15.10;63.10;;;;;;5051369;28;20561;-66
2023/12/15 05:32:38;;;;;;;7.07;5.75;;;15.10;63.20;;;;;;5052013;28;20175;-66
2023/12/15 05:35:04;;;;;;;8.00;5.80;;;15.00;62.90;;;;;;5051769;28;20215;-65
2023/12/15 05:37:30;;;;;;;8.85;6.15;;;15.00;63.00;;;;;;5050763;28;20175;-65
2023/12/15 05:39:57;;;;;;;6.43;5.53;;;15.00;63.10;;;;;;5051861;28;20178;-65
2023/12/15 05:42:23;;;;;;;7.95;6.05;;;15.10;63.10;;;;;;5051588;28;20175;-65
2023/12/15 05:44:49;;;;;;;8.18;5.82;;;15.00;63.10;;;;;;5051005;28;20634;-65
2023/12/15 05:47:15;;;;;;;7.03;6.32;;;15.00;63.10;;;;;;5051489;28;20182;-65
2023/12/15 05:49:40;;;;;;;7.45;6.15;;;15.00;63.20;;;;;;5051727;28;20183;-66
2023/12/15 05:52:08;;;;;;;6.28;5.60;;;15.10;63.20;;;;;;5051002;28;20260;-66
2023/12/15 05:54:34;;;;;;;8.15;6.13;;;15.00;63.10;;;;;;5051321;28;20234;-66
2023/12/15 05:57:00;;;;;;;7.78;5.88;;;15.00;63.10;;;;;;5051863;28;20183;-66
2023/12/15 05:59:25;;;;;;;6.82;5.95;;;15.00;63.10;;;;;;5050791;28;20186;-65
2023/12/15 06:01:51;;;;;;;6.60;5.90;;;15.00;63.10;;;;;;5051786;28;20204;-65
2023/12/15 06:04:17;;;;;;;6.70;5.88;;;15.00;63.10;;;;;;5051361;28;20678;-66
2023/12/15 06:06:42;;;;;;;7.32;5.70;;;15.00;63.20;;;;;;5050821;28;20213;-66
2023/12/15 06:09:09;;;;;;;6.22;5.43;;;15.00;63.10;;;;;;5050255;28;20179;-67
2023/12/15 06:11:40;;;;;;;6.55;5.32;;;15.00;63.00;;;;;;5051488;28;20210;-66
2023/12/15 06:14:05;;;;;;;6.00;5.40;;;15.10;63.00;;;;;;5050868;28;20202;-66
2023/12/15 06:16:31;;;;;;;6.60;5.40;;;15.10;62.90;;;;;;5051301;28;20172;-65
2023/12/15 06:18:56;;;;;;;7.13;4.70;;;15.20;62.90;;;;;;5051039;28;20217;-65
2023/12/15 06:21:22;;;;;;;5.80;4.75;;;15.20;63.00;;;;;;5051190;28;20168;-66
2023/12/15 06:23:48;;;;;;;5.70;5.10;;;15.30;63.10;;;;;;5051396;28;20643;-66
2023/12/15 06:26:20;;;;;;;5.88;4.60;;;15.30;62.90;;;;;;5050537;28;20270;-66
2023/12/15 06:28:45;;;;;;;5.70;5.10;;;15.40;62.90;;;;;;5053149;28;20240;-65
2023/12/15 06:31:11;;;;;;;4.85;4.25;;;15.40;62.90;;;;;;5054964;28;20274;-66
2023/12/15 06:33:36;;;;;;;5.20;4.68;;;15.50;62.60;;;;;;5053974;28;20206;-68
2023/12/15 06:36:02;;;;;;;5.30;4.63;;;15.70;62.60;;;;;;5055037;28;20179;-66
2023/12/15 06:38:28;;;;;;;6.70;4.40;;;15.70;62.20;;;;;;5054696;28;20175;-65
2023/12/15 06:40:53;;;;;;;5.13;4.60;;;15.80;62.30;;;;;;5054235;28;20190;-64
2023/12/15 06:43:19;;;;;;;4.53;4.13;;;15.80;62.10;;;;;;5054492;28;20178;-65
2023/12/15 06:45:45;;;;;;;5.47;4.65;;;15.90;62.10;;;;;;5054767;28;20175;-65
2023/12/15 06:48:10;;;;;;;4.95;4.20;;;16.00;62.10;;;;;;5053957;28;20524;-66
2023/12/15 06:50:36;;;;;;;4.88;4.38;;;16.00;61.90;;;;;;5054548;28;20313;-66
2023/12/15 06:53:01;;;;;;;5.22;4.38;;;16.10;61.70;;;;;;5054771;28;20300;-66
2023/12/15 06:55:27;;;;;;;4.45;4.05;;;16.10;61.80;;;;;;5053454;28;20307;-66
2023/12/15 06:57:52;;;;;;;5.18;3.80;;;16.10;61.70;;;;;;5054546;28;20266;-65
2023/12/15 07:00:18;;;;;;;5.20;4.35;;;16.10;61.70;;;;;;5054285;28;20171;-66
2023/12/15 07:02:43;;;;;;;4.68;4.18;;;16.20;61.60;;;;;;5053694;28;20182;-65
2023/12/15 07:05:10;;;;;;;4.78;4.22;;;16.20;61.50;;;;;;5054325;28;20178;-66
2023/12/15 07:07:36;;;;;;;5.40;4.60;;;16.20;61.40;;;;;;5054015;28;20225;-66
2023/12/15 07:10:03;;;;;;;6.13;4.57;;;16.30;61.40;;;;;;5053481;28;20187;-66
2023/12/15 07:12:28;;;;;;;6.85;4.90;;;16.20;61.40;;;;;;5053927;28;20171;-66
2023/12/15 07:14:54;;;;;;;4.45;3.88;;;16.30;61.40;;;;;;5054127;28;20215;-66
2023/12/15 07:17:20;;;;;;;5.95;4.20;;;16.30;61.50;;;;;;5053145;28;20167;-65
2023/12/15 07:19:46;;;;;;;4.38;3.97;;;16.40;61.40;;;;;;5054306;28;20274;-65
2023/12/15 07:22:11;;;;;;;4.25;3.92;;;16.60;61.20;;;;;;5054256;28;20206;-65
2023/12/15 07:24:37;;;;;;;5.55;4.22;;;16.70;61.00;;;;;;5053054;28;20221;-65
2023/12/15 07:27:04;;;;;;;4.63;3.70;;;17.00;60.40;;;;;;5053953;28;20602;-66
2023/12/15 07:29:29;;;;;;;5.10;4.00;;;17.00;60.10;;;;;;5052941;28;20266;-66
2023/12/15 07:31:55;;;;;;;4.55;4.07;;;17.30;59.60;;;;;;5053894;28;20258;-66
2023/12/15 07:34:20;;;;;;;4.03;3.65;;;17.50;59.30;;;;;;5053765;28;20308;-66
2023/12/15 07:36:47;;;;;;;4.38;3.65;;;17.50;59.10;;;;;;5052948;28;20258;-65
2023/12/15 07:39:12;;;;;;;3.42;3.13;;;17.60;59.00;;;;;;5053731;28;20229;-66
2023/12/15 07:41:39;;;;;;;5.03;4.07;;;17.60;58.90;;;;;;5052828;28;20167;-65
2023/12/15 07:44:04;;;;;;;4.43;3.40;;;17.60;59.00;;;;;;5053065;28;20183;-65
2023/12/15 07:46:30;;;;;;;4.32;3.90;;;17.60;58.80;;;;;;5053274;28;20568;-65
2023/12/15 07:48:55;;;;;;;4.72;3.53;;;17.60;58.80;;;;;;5053710;28;20262;-66
2023/12/15 07:51:21;;;;;;;6.10;3.92;;;17.60;58.80;;;;;;5052705;28;20250;-66
2023/12/15 07:53:47;;;;;;;5.07;3.92;;;17.60;58.80;;;;;;5053425;28;20282;-66
2023/12/15 07:56:24;;;;;;;4.10;3.70;;;17.60;58.80;;;;;;5053218;28;20251;-65
2023/12/15 07:58:50;;;;;;;4.07;3.70;;;17.60;58.90;;;;;;5052629;28;20552;-65
2023/12/15 08:01:17;;;;;;;4.18;3.75;;;17.60;59.00;;;;;;5052837;28;20179;-65
2023/12/15 08:03:43;;;;;;;4.95;3.50;;;17.60;59.00;;;;;;5053384;28;20211;-66
2023/12/15 08:06:08;;;;;;;4.45;3.65;;;17.50;59.10;;;;;;5052732;28;20210;-66
2023/12/15 08:08:34;;;;;;;4.47;3.80;;;17.60;59.10;;;;;;5052912;28;20176;-66
2023/12/15 08:10:59;;;;;;;5.25;3.55;;;17.50;59.20;;;;;;5053196;28;20182;-66
2023/12/15 08:13:25;;;;;;;4.50;3.88;;;17.50;59.20;;;;;;5051931;28;20175;-66
2023/12/15 08:15:50;;;;;;;4.07;3.72;;;17.50;59.30;;;;;;5053021;28;20175;-65
2023/12/15 08:18:16;;;;;;;4.63;3.85;;;17.30;59.30;;;;;;5052865;28;20551;-66
2023/12/15 08:20:41;;;;;;;4.93;3.60;;;17.30;59.60;;;;;;5052143;28;20664;-66
2023/12/15 08:23:07;;;;;;;4.53;3.65;;;17.40;59.60;;;;;;5052943;28;20175;-66
2023/12/15 08:25:32;;;;;;;4.35;3.33;;;17.40;59.50;;;;;;5052230;28;20179;-66
2023/12/15 08:27:58;;;;;;;4.57;4.00;;;17.40;59.60;;;;;;5052601;28;20182;-67
2023/12/15 08:30:23;;;;;;;5.47;3.53;;;17.40;59.50;;;;;;5051231;28;20186;-66
2023/12/15 08:32:49;;;;;;;5.68;4.05;;;17.40;59.60;;;;;;5052229;28;20175;-66
2023/12/15 08:35:14;;;;;;;5.22;3.58;;;17.40;59.70;;;;;;5052655;28;20225;-66
2023/12/15 08:37:40;;;;;;;5.13;3.30;;;17.40;59.70;;;;;;5052918;28;20175;-65
2023/12/15 08:40:06;;;;;;;4.93;3.40;;;17.40;59.70;;;;;;5051933;28;20281;-65
2023/12/15 08:42:31;;;;;;;5.90;3.88;;;17.40;59.70;;;;;;5052285;28;20171;-65
2023/12/15 08:44:57;;;;;;;5.85;3.88;;;17.40;59.70;;;;;;5052438;28;20654;-66
2023/12/15 08:47:22;;;;;;;6.40;4.00;;;17.40;59.70;;;;;;5051404;28;20182;-66
2023/12/15 08:49:48;;;;;;;6.88;3.83;;;17.50;59.80;;;;;;5052595;28;20182;-66
2023/12/15 08:52:14;;;;;;;4.30;3.83;;;17.50;59.80;;;;;;5052026;28;20179;-64
2023/12/15 08:54:39;;;;;;;4.03;3.58;;;17.40;59.80;;;;;;5051457;28;20317;-63
2023/12/15 08:57:05;;;;;;;6.30;3.88;;;17.40;59.80;;;;;;5052268;28;20178;-63
2023/12/15 08:59:30;;;;;;;5.05;4.25;;;17.30;60.00;;;;;;5051856;28;20179;-65
2023/12/15 09:01:56;;;;;;;6.40;3.60;;;17.20;60.40;;;;;;5051694;28;20182;-64
2023/12/15 09:04:21;;;;;;;8.73;3.88;;;17.20;60.50;;;;;;5051822;28;20822;-65
2023/12/15 09:06:47;;;;;;;5.20;3.70;;;17.20;60.80;;;;;;5052232;28;20676;-64
2023/12/15 09:09:12;;;;;;;5.32;4.32;;;17.20;60.90;;;;;;5051560;28;20182;-65
2023/12/15 09:11:38;;;;;;;8.02;3.67;;;17.20;60.80;;;;;;5051800;28;20534;-64
2023/12/15 09:14:03;;;;;;;6.10;3.75;;;17.30;60.90;;;;;;5051990;28;20697;-65
2023/12/15 09:16:29;;;;;;;6.35;4.07;;;17.20;60.90;;;;;;5051316;28;20174;-65
2023/12/15 09:18:54;;;;;;;4.20;3.67;;;17.30;60.90;;;;;;5052190;28;20175;-63
2023/12/15 09:21:20;;;;;;;5.68;4.13;;;17.30;61.00;;;;;;5051835;28;20174;-66
2023/12/15 09:23:46;;;;;;;3.80;3.50;;;17.30;61.00;;;;;;5051399;28;20194;-62
2023/12/15 09:26:12;;;;;;;5.57;3.92;;;17.30;61.00;;;;;;5051935;28;20179;-63
2023/12/15 09:28:38;;;;;;;6.03;4.35;;;17.30;61.80;;;;;;5051600;28;20169;-63
2023/12/15 09:31:04;;;;;;;6.65;3.70;;;17.20;61.10;;;;;;5051370;28;20282;-63
2023/12/15 09:33:29;;;;;;;5.22;3.83;;;17.10;61.10;;;;;;5051661;28;20171;-63
2023/12/15 09:35:56;;;;;;;4.47;3.42;;;17.10;61.30;;;;;;5051344;28;20184;-63
2023/12/15 09:38:21;;;;;;;4.15;3.75;;;17.00;61.50;;;;;;5050334;28;20175;-63
2023/12/15 09:40:47;;;;;;;6.45;3.97;;;17.00;61.70;;;;;;5051875;28;20653;-63
2023/12/15 09:43:13;;;;;;;5.65;3.80;;;17.00;61.80;;;;;;5051091;28;20217;-64
2023/12/15 09:45:39;;;;;;;5.57;3.33;;;17.00;61.80;;;;;;5051926;28;20613;-64
2023/12/15 09:48:05;;;;;;;5.88;3.65;;;17.00;62.20;;;;;;5050834;28;20182;-64
2023/12/15 09:50:32;;;;;;;3.78;3.20;;;17.10;61.90;;;;;;5049414;28;20229;-64
2023/12/15 09:52:57;;;;;;;3.95;3.33;;;17.00;61.90;;;;;;5051788;28;20217;-64
2023/12/15 09:55:24;;;;;;;5.18;3.47;;;17.00;61.80;;;;;;5050002;28;20670;-63
2023/12/15 09:57:50;;;;;;;4.55;4.15;;;17.00;61.90;;;;;;5049641;28;20233;-63
2023/12/15 10:00:16;;;;;;;4.10;3.70;;;17.00;62.00;;;;;;5033879;28;20183;-63
2023/12/15 10:02:42;;;;;;;6.45;3.63;;;16.90;62.00;;;;;;5051612;28;20176;-63
2023/12/15 10:05:08;;;;;;;5.10;3.90;;;16.90;62.10;;;;;;5054900;28;20228;-63
2023/12/15 10:07:33;;;;;;;4.03;3.40;;;16.90;62.10;;;;;;5055166;28;20232;-64
2023/12/15 10:09:59;;;;;;;5.63;3.45;;;16.90;62.10;;;;;;5055347;28;20675;-64
2023/12/15 10:12:25;;;;;;;5.97;3.60;;;16.90;62.20;;;;;;5052891;28;20262;-64
2023/12/15 10:14:53;;;;;;;4.43;3.20;;;16.90;62.10;;;;;;5055334;28;20218;-63
2023/12/15 10:17:22;;;;;;;4.60;3.92;;;17.00;62.20;;;;;;5053412;28;20178;-64
2023/12/15 10:19:47;;;;;;;4.72;4.00;;;16.90;62.10;;;;;;5054450;28;20183;-64
2023/12/15 10:22:13;;;;;;;4.93;3.92;;;16.90;62.00;;;;;;5053470;28;20232;-63
2023/12/15 10:24:39;;;;;;;5.32;3.90;;;16.90;62.10;;;;;;5054102;28;20258;-64
2023/12/15 10:27:07;;;;;;;4.32;3.42;;;16.90;62.10;;;;;;5053203;28;20175;-63
2023/12/15 10:29:33;;;;;;;3.85;3.45;;;16.90;62.20;;;;;;5054440;28;20179;-63
2023/12/15 10:31:58;;;;;;;4.38;3.53;;;16.90;62.40;;;;;;5054941;28;20179;-64
2023/12/15 10:34:25;;;;;;;6.68;4.00;;;16.80;62.50;;;;;;5052414;28;20238;-64
2023/12/15 10:36:51;;;;;;;5.07;3.67;;;16.90;62.50;;;;;;5055015;28;20183;-64
2023/12/15 10:39:17;;;;;;;5.55;3.85;;;16.90;62.40;;;;;;5053672;28;20266;-63
2023/12/15 10:41:43;;;;;;;4.57;3.58;;;16.90;62.30;;;;;;5053288;28;20254;-62
2023/12/15 10:44:12;;;;;;;4.85;3.67;;;16.90;62.30;;;;;;5054798;28;20176;-62
2023/12/15 10:46:40;;;;;;;4.10;3.70;;;16.90;62.30;;;;;;5053716;28;20239;-64
2023/12/15 10:49:06;;;;;;;6.30;3.95;;;16.90;62.30;;;;;;5054546;28;20186;-64
2023/12/15 10:51:32;;;;;;;5.63;3.60;;;16.90;62.30;;;;;;5052947;28;20538;-63
2023/12/15 10:53:57;;;;;;;4.70;3.10;;;16.90;62.40;;;;;;5052391;28;20276;-65
2023/12/15 10:56:26;;;;;;;3.67;3.25;;;16.80;62.40;;;;;;5053846;28;20797;-63
2023/12/15 10:58:51;;;;;;;6.38;3.00;;;16.80;62.50;;;;;;5054580;28;20175;-63
2023/12/15 11:01:17;;;;;;;4.93;3.13;;;16.80;62.50;;;;;;5053387;28;20178;-64
2023/12/15 11:03:43;;;;;;;5.53;3.40;;;16.80;62.60;;;;;;5054188;28;20175;-63
2023/12/15 11:06:09;;;;;;;4.15;3.03;;;16.90;62.70;;;;;;5054142;28;20262;-64
2023/12/15 11:08:34;;;;;;;3.65;3.13;;;16.90;62.70;;;;;;5053184;28;20192;-65
2023/12/15 11:11:03;;;;;;;3.22;2.88;;;16.90;62.60;;;;;;5054146;28;20532;-64
2023/12/15 11:13:49;;;;;;;4.38;3.17;;;16.90;62.60;;;;;;5053734;28;20181;-65
2023/12/15 11:16:17;;;;;;;5.15;3.30;;;16.90;62.60;;;;;;5051770;28;20701;-64
2023/12/15 11:18:43;;;;;;;3.67;3.03;;;16.80;62.50;;;;;;5053855;28;20657;-64
2023/12/15 11:21:11;;;;;;;4.65;3.05;;;16.80;62.50;;;;;;5053875;28;20171;-64
2023/12/15 11:23:55;;;;;;;5.78;3.28;;;16.80;62.50;;;;;;5053069;28;20175;-64
2023/12/15 11:26:26;;;;;;;4.05;3.65;;;16.80;62.50;;;;;;5053393;28;20630;-64
2023/12/15 11:28:53;;;;;;;4.72;3.17;;;16.70;62.30;;;;;;5053146;28;20210;-64
2023/12/15 11:31:26;;;;;;;4.75;3.10;;;16.80;62.40;;;;;;5035571;28;20183;-63
2023/12/15 11:33:52;;;;;;;5.00;3.35;;;16.80;62.40;;;;;;5053395;28;20273;-64
2023/12/15 11:36:18;;;;;;;5.93;3.72;;;16.80;62.30;;;;;;5051314;28;20248;-63
2023/12/15 11:38:48;;;;;;;4.55;3.13;;;16.80;62.20;;;;;;5053836;28;20182;-63
2023/12/15 11:41:14;;;;;;;6.18;3.28;;;16.80;62.30;;;;;;5053529;28;20174;-61
2023/12/15 11:43:43;;;;;;;4.95;3.55;;;16.80;62.30;;;;;;5051656;28;20256;-62
2023/12/15 11:46:10;;;;;;;8.02;3.83;;;16.80;62.40;;;;;;5053462;28;20182;-63
2023/12/15 11:48:36;;;;;;;5.28;3.65;;;16.80;62.30;;;;;;5053501;28;20175;-63
2023/12/15 11:51:02;;;;;;;6.90;4.25;;;16.70;62.40;;;;;;5052939;28;20652;-63
2023/12/15 11:53:28;;;;;;;5.47;3.05;;;16.80;62.50;;;;;;5053164;28;20190;-63
2023/12/15 11:55:55;;;;;;;9.48;3.40;;;16.70;62.60;;;;;;5053140;28;20697;-62
2023/12/15 11:58:22;;;;;;;4.75;3.50;;;16.70;62.70;;;;;;5052328;28;20262;-63
2023/12/15 12:00:47;;;;;;;7.40;3.63;;;16.70;62.80;;;;;;5052041;28;20175;-61
2023/12/15 12:03:16;;;;;;;4.50;3.17;;;16.70;63.10;;;;;;5053338;28;20262;-62
2023/12/15 12:05:44;;;;;;;3.53;3.20;;;16.60;62.90;;;;;;5052537;28;20187;-63
2023/12/15 12:08:10;;;;;;;4.20;3.17;;;16.60;62.90;;;;;;5053265;28;20175;-63
2023/12/15 12:10:39;;;;;;;5.97;3.20;;;16.60;62.90;;;;;;5052662;28;20179;-63
2023/12/15 12:13:05;;;;;;;5.88;3.55;;;16.60;63.00;;;;;;5052995;28;20229;-62
2023/12/15 12:15:31;;;;;;;5.15;3.20;;;16.60;63.00;;;;;;5052526;28;20219;-62
2023/12/15 12:17:56;;;;;;;5.78;3.30;;;16.60;63.10;;;;;;5052289;28;20905;-62
2023/12/15 12:20:26;;;;;;;4.72;3.50;;;16.60;63.10;;;;;;5052811;28;20730;-62
2023/12/15 12:22:52;;;;;;;5.28;3.40;;;16.60;63.10;;;;;;5051787;28;20175;-63
2023/12/15 12:25:17;;;;;;;4.93;3.10;;;16.50;63.90;;;;;;5050683;28;20225;-65
2023/12/15 12:27:44;;;;;;;6.78;3.42;;;16.60;63.00;;;;;;5052458;28;20221;-64
2023/12/15 12:30:11;;;;;;;4.35;3.38;;;16.60;62.90;;;;;;5051520;28;20182;-65
2023/12/15 12:32:37;;;;;;;5.80;3.30;;;16.50;63.00;;;;;;5052029;28;20204;-63
2023/12/15 12:35:03;;;;;;;3.95;3.38;;;16.50;62.90;;;;;;5052669;28;20218;-65
2023/12/15 12:37:31;;;;;;;3.78;2.78;;;16.50;63.00;;;;;;5052500;28;20188;-64
2023/12/15 12:39:57;;;;;;;5.05;3.55;;;16.50;63.00;;;;;;5051864;28;20548;-63
2023/12/15 12:42:23;;;;;;;4.53;3.20;;;16.40;63.10;;;;;;5052099;28;20167;-64